Time;durP1;ratioP1;P1;durP2;ratioP2;P2;SDS_P1;SDS_P2;PMS_P1;PMS_P2;Temp;Humidity;BMP_temperature;BMP_pressure;BME280_temperature;BME280_humidity;BME280_pressure;Samples;Min_cycle;Max_cycle;Signal;HPM_P1;HPM_P2
2023/01/02 00:01:15;;;;;;;;;;;8.40;88.60;;;;;;5033243;28;19924;-75
2023/01/02 00:03:40;;;;;;;;;;;8.40;88.60;;;;;;5014421;28;19928;-75
2023/01/02 00:06:06;;;;;;;;;;;8.40;88.60;;;;;;5017291;28;19921;-76
2023/01/02 00:08:31;;;;;;;;;;;8.30;88.60;;;;;;5034096;28;20418;-75
2023/01/02 00:10:57;;;;;;;;;;;8.30;88.60;;;;;;5015511;28;19920;-75
2023/01/02 00:13:22;;;;;;;;;;;8.40;88.70;;;;;;5047753;28;20569;-75
2023/01/02 00:15:48;;;;;;;;;;;8.40;88.70;;;;;;5044964;28;19927;-75
2023/01/02 00:18:13;;;;;;;;;;;8.40;88.70;;;;;;5032841;28;19964;-75
2023/01/02 00:20:39;;;;;;;;;;;8.40;88.70;;;;;;5031753;28;20504;-75
2023/01/02 00:23:04;;;;;;;;;;;8.40;88.60;;;;;;5029850;28;19966;-75
2023/01/02 00:25:30;;;;;;;;;;;8.40;88.60;;;;;;5049976;28;19952;-75
2023/01/02 00:27:55;;;;;;;;;;;8.40;88.60;;;;;;5033566;28;20019;-76
2023/01/02 00:30:21;;;;;;;;;;;8.40;88.60;;;;;;5048911;28;19929;-76
2023/01/02 00:32:46;;;;;;;;;;;8.40;88.60;;;;;;5034733;28;19921;-75
2023/01/02 00:35:11;;;;;;;;;;;8.40;88.70;;;;;;5016174;28;20041;-76
2023/01/02 00:37:37;;;;;;;;;;;8.40;88.60;;;;;;5033100;28;19921;-76
2023/01/02 00:40:03;;;;;;;;;;;8.40;88.70;;;;;;5030839;28;19964;-75
2023/01/02 00:42:29;;;;;;;;;;;8.40;88.70;;;;;;5030450;28;19929;-75
2023/01/02 00:44:54;;;;;;;;;;;8.40;88.70;;;;;;5030921;28;20472;-75
2023/01/02 00:47:19;;;;;;;;;;;8.40;88.60;;;;;;5033409;28;19963;-75
2023/01/02 00:49:45;;;;;;;;;;;8.40;88.70;;;;;;5029238;28;19921;-75
2023/01/02 00:52:10;;;;;;;;;;;8.40;88.70;;;;;;5033964;28;20526;-75
2023/01/02 00:54:36;;;;;;;;;;;8.40;88.70;;;;;;5034052;28;19928;-75
2023/01/02 00:57:01;;;;;;;;;;;8.40;88.70;;;;;;5032410;28;20011;-75
2023/01/02 00:59:27;;;;;;;;;;;8.40;88.70;;;;;;5031474;28;19920;-75
2023/01/02 01:01:52;;;;;;;;;;;8.40;88.70;;;;;;5031724;28;19960;-75
2023/01/02 01:04:17;;;;;;;;;;;8.40;88.70;;;;;;5027514;28;19927;-75
2023/01/02 01:06:43;;;;;;;;;;;8.40;88.70;;;;;;5015272;28;20080;-74
2023/01/02 01:09:08;;;;;;;;;;;8.40;88.70;;;;;;5032225;28;19921;-75
2023/01/02 01:11:34;;;;;;;;;;;8.40;88.70;;;;;;5032198;28;20024;-73
2023/01/02 01:13:59;;;;;;;;;;;8.40;88.70;;;;;;5033934;28;19978;-75
2023/01/02 01:16:25;;;;;;;;;;;8.40;88.70;;;;;;5032468;28;19921;-75
2023/01/02 01:18:53;;;;;;;;;;;8.40;88.70;;;;;;5030790;28;19921;-75
2023/01/02 01:21:19;;;;;;;;;;;8.40;88.80;;;;;;5015831;28;19936;-75
2023/01/02 01:23:48;;;;;;;;;;;8.40;88.80;;;;;;5032066;28;19920;-75
2023/01/02 01:26:13;;;;;;;;;;;8.40;88.70;;;;;;5032812;28;20569;-76
2023/01/02 01:28:39;;;;;;;;;;;8.40;88.70;;;;;;5031431;28;19946;-75
2023/01/02 01:31:08;;;;;;;;;;;8.40;88.70;;;;;;5033015;28;19927;-75
2023/01/02 01:33:33;;;;;;;;;;;8.40;88.70;;;;;;5047643;28;20337;-73
2023/01/02 01:36:06;;;;;;;;;;;8.40;88.70;;;;;;5033315;28;19920;-75
2023/01/02 01:38:31;;;;;;;;;;;8.40;88.70;;;;;;5047436;28;19932;-75
2023/01/02 01:40:57;;;;;;;;;;;8.40;88.70;;;;;;5030389;28;19925;-75
2023/01/02 01:43:34;;;;;;;;;;;8.40;88.70;;;;;;5033915;28;19917;-75
2023/01/02 01:46:00;;;;;;;;;;;8.40;88.70;;;;;;5032448;28;19923;-75
2023/01/02 01:48:25;;;;;;;;;;;8.40;89.50;;;;;;5033934;28;19924;-75
2023/01/02 01:50:51;;;;;;;;;;;8.40;88.80;;;;;;5031966;28;20040;-75
2023/01/02 01:53:17;;;;;;;;;;;8.40;88.70;;;;;;5013336;28;19957;-76
2023/01/02 01:55:44;;;;;;;;;;;8.40;88.70;;;;;;5033557;28;19939;-74
2023/01/02 01:58:10;;;;;;;;;;;8.40;89.50;;;;;;5035859;28;19921;-75
2023/01/02 02:00:36;;;;;;;;;;;8.40;88.70;;;;;;5012747;28;19928;-75
2023/01/02 02:03:09;;;;;;;;;;;8.40;88.70;;;;;;5034389;28;22141;-75
2023/01/02 02:05:35;;;;;;;;;;;8.30;88.70;;;;;;5035537;28;20466;-75
2023/01/02 02:08:07;;;;;;;;;;;8.30;88.70;;;;;;5033160;28;19920;-75
2023/01/02 02:10:33;;;;;;;;;;;8.30;88.80;;;;;;5033084;28;19920;-75
2023/01/02 02:12:58;;;;;;;;;;;8.30;88.80;;;;;;5036003;28;19920;-75
2023/01/02 02:15:30;;;;;;;;;;;8.30;88.70;;;;;;5052892;28;19920;-75
2023/01/02 02:18:06;;;;;;;;;;;8.30;88.70;;;;;;5031235;28;19921;-75
2023/01/02 02:20:33;;;;;;;;;;;8.30;88.80;;;;;;5034130;28;19924;-76
2023/01/02 02:23:14;;;;;;;;;;;8.30;88.80;;;;;;5035402;28;20023;-76
2023/01/02 02:25:58;;;;;;;;;;;8.30;88.80;;;;;;5035195;28;19982;-75
2023/01/02 02:28:42;;;;;;;;;;;8.30;88.80;;;;;;5035281;28;19927;-75
2023/01/02 02:31:08;;;;;;;;;;;8.30;88.80;;;;;;5034334;28;20019;-75
2023/01/02 02:33:39;;;;;;;;;;;8.30;88.80;;;;;;5035467;28;19917;-73
2023/01/02 02:36:09;;;;;;;;;;;8.20;88.80;;;;;;5035522;28;19940;-75
2023/01/02 02:38:34;;;;;;;;;;;8.30;88.80;;;;;;5016618;28;19917;-74
2023/01/02 02:41:18;;;;;;;;;;;8.20;88.80;;;;;;5033210;28;19924;-76
2023/01/02 02:43:50;;;;;;;;;;;8.20;88.80;;;;;;5032901;28;20032;-75
2023/01/02 02:46:21;;;;;;;;;;;8.20;88.80;;;;;;5035198;28;20298;-74
2023/01/02 02:49:07;;;;;;;;;;;8.20;88.80;;;;;;5048655;28;19975;-75
2023/01/02 02:51:42;;;;;;;;;;;8.20;88.80;;;;;;5034539;28;20401;-75
2023/01/02 02:54:12;;;;;;;;;;;8.20;88.90;;;;;;5035913;28;19967;-76
2023/01/02 02:56:38;;;;;;;;;;;8.20;88.90;;;;;;5033159;28;19920;-76
2023/01/02 02:59:03;;;;;;;;;;;8.20;88.90;;;;;;5033586;28;20303;-75
2023/01/02 03:01:30;;;;;;;;;;;8.20;88.90;;;;;;5032848;28;19929;-76
2023/01/02 03:03:55;;;;;;;;;;;8.20;89.00;;;;;;5016652;28;19928;-76
2023/01/02 03:06:24;;;;;;;;;;;8.20;88.90;;;;;;5051058;28;19920;-76
2023/01/02 03:08:49;;;;;;;;;;;8.20;88.90;;;;;;5031815;28;19960;-75
2023/01/02 03:11:15;;;;;;;;;;;8.20;88.90;;;;;;5031726;28;20016;-75
2023/01/02 03:13:59;;;;;;;;;;;8.10;88.90;;;;;;5033604;28;20008;-76
2023/01/02 03:16:24;;;;;;;;;;;8.10;88.90;;;;;;5019280;28;19927;-76
2023/01/02 03:19:01;;;;;;;;;;;8.10;89.00;;;;;;5034875;28;20303;-75
2023/01/02 03:21:28;;;;;;;;;;;8.10;89.00;;;;;;5032254;28;19982;-76
2023/01/02 03:23:54;;;;;;;;;;;8.10;89.00;;;;;;5032560;28;20398;-76
2023/01/02 03:26:22;;;;;;;;;;;8.10;88.90;;;;;;5017265;28;19920;-76
2023/01/02 03:28:49;;;;;;;;;;;8.10;89.00;;;;;;5032374;28;19925;-76
2023/01/02 03:31:16;;;;;;;;;;;8.10;89.00;;;;;;5036433;28;19947;-75
2023/01/02 03:33:43;;;;;;;;;;;8.00;89.00;;;;;;5035467;28;19925;-75
2023/01/02 03:36:09;;;;;;;;;;;8.00;89.00;;;;;;5037157;28;19921;-75
2023/01/02 03:38:40;;;;;;;;;;;8.00;89.00;;;;;;5030681;28;20342;-75
2023/01/02 03:41:16;;;;;;;;;;;8.00;89.00;;;;;;5048678;28;20022;-75
2023/01/02 03:43:42;;;;;;;;;;;8.00;89.00;;;;;;5032107;28;19929;-73
2023/01/02 03:46:17;;;;;;;;;;;8.00;89.10;;;;;;5034875;28;20556;-75
2023/01/02 03:48:43;;;;;;;;;;;8.00;89.10;;;;;;5049577;28;19967;-72
2023/01/02 03:51:09;;;;;;;;;;;8.00;89.10;;;;;;5034685;28;19960;-75
2023/01/02 03:53:34;;;;;;;;;;;8.00;89.10;;;;;;5033823;28;19925;-74
2023/01/02 03:56:09;;;;;;;;;;;8.00;89.10;;;;;;5035004;28;19921;-75
2023/01/02 03:58:40;;;;;;;;;;;8.00;89.20;;;;;;5031675;28;19920;-74
2023/01/02 04:01:11;;;;;;;;;;;8.00;89.20;;;;;;5032816;28;19921;-75
2023/01/02 04:03:47;;;;;;;;;;;7.90;89.10;;;;;;5033221;28;20402;-75
2023/01/02 04:06:13;;;;;;;;;;;7.90;89.10;;;;;;5031916;28;19921;-75
2023/01/02 04:08:40;;;;;;;;;;;7.90;89.10;;;;;;5030548;28;20387;-75
2023/01/02 04:11:06;;;;;;;;;;;8.00;89.20;;;;;;5031878;28;19970;-75
2023/01/02 04:13:33;;;;;;;;;;;8.00;89.20;;;;;;5032220;28;19929;-75
2023/01/02 04:15:58;;;;;;;;;;;7.90;89.10;;;;;;5019110;28;19921;-76
2023/01/02 04:18:28;;;;;;;;;;;8.00;89.20;;;;;;5032953;28;20757;-75
2023/01/02 04:20:55;;;;;;;;;;;8.00;89.20;;;;;;5027913;28;19925;-74
2023/01/02 04:23:25;;;;;;;;;;;8.00;89.20;;;;;;5033751;28;19925;-75
2023/01/02 04:25:59;;;;;;;;;;;8.00;89.20;;;;;;5029378;28;19931;-75
2023/01/02 04:28:25;;;;;;;;;;;8.00;89.10;;;;;;5025870;28;19920;-76
2023/01/02 04:30:54;;;;;;;;;;;8.00;89.20;;;;;;5031924;28;19925;-76
2023/01/02 04:33:19;;;;;;;;;;;8.00;89.10;;;;;;5034326;28;19967;-74
2023/01/02 04:35:45;;;;;;;;;;;8.00;89.20;;;;;;5031907;28;19999;-75
2023/01/02 04:38:10;;;;;;;;;;;8.00;89.20;;;;;;5033419;28;19927;-75
2023/01/02 04:40:36;;;;;;;;;;;7.90;89.10;;;;;;5015291;28;20077;-76
2023/01/02 04:43:06;;;;;;;;;;;7.90;89.10;;;;;;5046642;28;19968;-75
2023/01/02 04:45:31;;;;;;;;;;;8.00;89.20;;;;;;5029763;28;19920;-75
2023/01/02 04:47:57;;;;;;;;;;;7.90;89.10;;;;;;5032825;28;20701;-75
2023/01/02 04:50:22;;;;;;;;;;;7.90;89.10;;;;;;5016542;28;19956;-75
2023/01/02 04:52:48;;;;;;;;;;;7.90;89.10;;;;;;5033407;28;19924;-75
2023/01/02 04:55:13;;;;;;;;;;;7.90;89.20;;;;;;5033864;28;20745;-76
2023/01/02 04:57:38;;;;;;;;;;;7.90;89.20;;;;;;5033190;28;19928;-73
2023/01/02 05:00:05;;;;;;;;;;;7.90;89.20;;;;;;5033326;28;19971;-75
2023/01/02 05:02:34;;;;;;;;;;;7.90;89.20;;;;;;5024776;28;19929;-75
2023/01/02 05:04:59;;;;;;;;;;;7.90;89.20;;;;;;5031476;28;19921;-76
2023/01/02 05:07:25;;;;;;;;;;;7.90;89.20;;;;;;5032858;28;20275;-75
2023/01/02 05:09:50;;;;;;;;;;;7.90;89.20;;;;;;5047280;28;19928;-75
2023/01/02 05:12:15;;;;;;;;;;;7.90;89.20;;;;;;5032491;28;19928;-75
2023/01/02 05:14:41;;;;;;;;;;;7.90;89.20;;;;;;5046689;28;20334;-75
2023/01/02 05:17:06;;;;;;;;;;;8.00;89.30;;;;;;5035039;28;20019;-74
2023/01/02 05:19:32;;;;;;;;;;;7.90;89.20;;;;;;5014882;28;20567;-75
2023/01/02 05:24:42;;;;;;;;;;;7.90;89.20;;;;;;5031844;28;20010;-74
2023/01/02 05:27:07;;;;;;;;;;;7.90;89.20;;;;;;5045295;28;20024;-75
2023/01/02 05:29:33;;;;;;;;;;;7.90;89.20;;;;;;5031060;28;19926;-76
2023/01/02 05:31:58;;;;;;;;;;;8.00;89.30;;;;;;5014461;28;19971;-75
2023/01/02 05:34:23;;;;;;;;;;;7.90;89.20;;;;;;5030638;28;19921;-76
2023/01/02 05:36:49;;;;;;;;;;;8.00;89.30;;;;;;5014425;28;20574;-75
2023/01/02 05:39:15;;;;;;;;;;;7.90;89.20;;;;;;5030464;28;19920;-75
2023/01/02 05:41:40;;;;;;;;;;;7.90;89.20;;;;;;5031703;28;19929;-75
2023/01/02 05:44:09;;;;;;;;;;;7.90;89.20;;;;;;5032317;28;19921;-75
2023/01/02 05:46:35;;;;;;;;;;;7.90;89.30;;;;;;5026727;28;19921;-74
2023/01/02 05:49:04;;;;;;;;;;;7.90;89.20;;;;;;5033792;28;19975;-75
2023/01/02 05:51:29;;;;;;;;;;;7.90;89.20;;;;;;5043467;28;19974;-75
2023/01/02 05:53:55;;;;;;;;;;;7.90;89.20;;;;;;5028847;28;19928;-76
2023/01/02 05:56:20;;;;;;;;;;;7.90;89.20;;;;;;5030571;28;19928;-73
2023/01/02 05:58:47;;;;;;;;;;;7.90;89.20;;;;;;5031086;28;19925;-75
2023/01/02 06:01:14;;;;;;;;;;;7.90;89.30;;;;;;5031703;28;20000;-75
2023/01/02 06:03:40;;;;;;;;;;;7.90;89.30;;;;;;5033031;28;20061;-75
2023/01/02 06:06:06;;;;;;;;;;;7.90;89.30;;;;;;5034256;28;19921;-76
2023/01/02 06:08:31;;;;;;;;;;;7.90;89.30;;;;;;5012823;28;19922;-76
2023/01/02 06:10:57;;;;;;;;;;;7.90;89.30;;;;;;5015390;28;19921;-74
2023/01/02 06:13:22;;;;;;;;;;;7.80;89.20;;;;;;5030549;28;20346;-74
2023/01/02 06:15:48;;;;;;;;;;;7.80;89.20;;;;;;5030166;28;19956;-75
2023/01/02 06:18:13;;;;;;;;;;;7.80;89.30;;;;;;5032160;28;19924;-75
2023/01/02 06:20:39;;;;;;;;;;;7.80;89.30;;;;;;5030722;28;19920;-75
2023/01/02 06:23:04;;;;;;;;;;;7.80;89.30;;;;;;5031723;28;19924;-76
2023/01/02 06:25:30;;;;;;;;;;;7.80;89.30;;;;;;5033076;28;19963;-75
2023/01/02 06:27:55;;;;;;;;;;;7.80;89.30;;;;;;5028268;28;19927;-75
2023/01/02 06:30:20;;;;;;;;;;;7.80;89.30;;;;;;5032477;28;20474;-75
2023/01/02 06:32:46;;;;;;;;;;;7.80;89.30;;;;;;5028895;28;19950;-75
2023/01/02 06:35:11;;;;;;;;;;;7.80;89.40;;;;;;5031119;28;19963;-75
2023/01/02 06:37:41;;;;;;;;;;;7.70;89.30;;;;;;5026097;28;19921;-76
2023/01/02 06:40:06;;;;;;;;;;;7.70;89.30;;;;;;5028945;28;20016;-75
2023/01/02 06:42:32;;;;;;;;;;;7.80;89.40;;;;;;5035514;28;19933;-75
2023/01/02 06:44:57;;;;;;;;;;;7.80;89.40;;;;;;5035204;28;19928;-76
2023/01/02 06:47:23;;;;;;;;;;;7.70;89.30;;;;;;5033164;28;20000;-73
2023/01/02 06:49:48;;;;;;;;;;;7.70;89.40;;;;;;5016956;28;19920;-75
2023/01/02 06:52:14;;;;;;;;;;;7.70;89.40;;;;;;5033471;28;19925;-75
2023/01/02 06:54:39;;;;;;;;;;;7.80;89.40;;;;;;5036819;28;19959;-76
2023/01/02 06:57:05;;;;;;;;;;;7.70;89.30;;;;;;5019487;28;20020;-75
2023/01/02 06:59:30;;;;;;;;;;;7.70;89.40;;;;;;5032903;28;20299;-76
2023/01/02 07:01:56;;;;;;;;;;;7.70;89.40;;;;;;5031924;28;19932;-75
2023/01/02 07:04:21;;;;;;;;;;;7.70;89.40;;;;;;5053358;28;19921;-75
2023/01/02 07:06:47;;;;;;;;;;;7.70;89.40;;;;;;5033219;28;19963;-76
2023/01/02 07:09:12;;;;;;;;;;;7.70;89.40;;;;;;5033195;28;19928;-75
2023/01/02 07:11:38;;;;;;;;;;;7.70;89.50;;;;;;5031175;28;20307;-76
2023/01/02 07:14:03;;;;;;;;;;;7.70;89.50;;;;;;5034684;28;19968;-76
2023/01/02 07:16:28;;;;;;;;;;;7.60;89.40;;;;;;5030261;28;19920;-76
2023/01/02 07:18:54;;;;;;;;;;;7.70;89.50;;;;;;5030946;28;20357;-76
2023/01/02 07:21:19;;;;;;;;;;;7.70;89.50;;;;;;5035285;28;19921;-75
2023/01/02 07:23:45;;;;;;;;;;;7.60;89.50;;;;;;5050602;28;20420;-74
2023/01/02 07:26:10;;;;;;;;;;;7.60;89.40;;;;;;5033888;28;19921;-75
2023/01/02 07:28:36;;;;;;;;;;;7.60;89.40;;;;;;5016752;28;19971;-75
2023/01/02 07:31:05;;;;;;;;;;;7.70;89.60;;;;;;5035139;28;20709;-75
2023/01/02 07:33:30;;;;;;;;;;;7.70;89.50;;;;;;5014772;28;19921;-75
2023/01/02 07:36:03;;;;;;;;;;;7.60;89.50;;;;;;5031925;28;20437;-75
2023/01/02 07:38:28;;;;;;;;;;;7.60;89.50;;;;;;5031763;28;19996;-75
2023/01/02 07:40:54;;;;;;;;;;;7.60;89.50;;;;;;5033670;28;20015;-75
2023/01/02 07:43:19;;;;;;;;;;;7.60;89.60;;;;;;5019241;28;19935;-75
2023/01/02 07:45:45;;;;;;;;;;;7.60;89.50;;;;;;5018292;28;20015;-75
2023/01/02 07:48:10;;;;;;;;;;;7.60;89.60;;;;;;5035669;28;19927;-75
2023/01/02 07:50:36;;;;;;;;;;;7.60;89.50;;;;;;5016504;28;19921;-74
2023/01/02 07:53:01;;;;;;;;;;;7.60;89.60;;;;;;5032091;28;21506;-76
2023/01/02 07:55:27;;;;;;;;;;;7.60;89.60;;;;;;5031046;28;20402;-72
2023/01/02 07:57:52;;;;;;;;;;;7.60;89.60;;;;;;5031024;28;19970;-75
2023/01/02 08:00:18;;;;;;;;;;;7.60;89.60;;;;;;5033571;28;19920;-75
2023/01/02 08:02:43;;;;;;;;;;;7.60;89.60;;;;;;5033272;28;19932;-74
2023/01/02 08:05:09;;;;;;;;;;;7.60;89.60;;;;;;5036137;28;19921;-75
2023/01/02 08:07:34;;;;;;;;;;;7.50;89.50;;;;;;5031488;28;19921;-73
2023/01/02 08:10:00;;;;;;;;;;;7.50;89.50;;;;;;5034335;28;19924;-75
2023/01/02 08:12:26;;;;;;;;;;;7.50;89.50;;;;;;5032040;28;19948;-75
2023/01/02 08:14:51;;;;;;;;;;;7.50;89.60;;;;;;5031743;28;19971;-75
2023/01/02 08:17:17;;;;;;;;;;;7.50;89.60;;;;;;5030847;28;20412;-75
2023/01/02 08:19:42;;;;;;;;;;;7.50;89.60;;;;;;5029605;28;20639;-72
2023/01/02 08:22:08;;;;;;;;;;;7.50;89.60;;;;;;5033757;28;19935;-75
2023/01/02 08:24:35;;;;;;;;;;;7.50;89.60;;;;;;5032788;28;20289;-75
2023/01/02 08:27:00;;;;;;;;;;;7.50;89.70;;;;;;5035275;28;20539;-75
2023/01/02 08:29:26;;;;;;;;;;;7.50;89.60;;;;;;5048817;28;19925;-75
2023/01/02 08:31:51;;;;;;;;;;;7.50;89.60;;;;;;5027725;28;20421;-75
2023/01/02 08:34:17;;;;;;;;;;;7.50;89.60;;;;;;5035148;28;19921;-75
2023/01/02 08:36:43;;;;;;;;;;;7.50;89.70;;;;;;5029136;28;20386;-73
2023/01/02 08:39:08;;;;;;;;;;;7.50;89.60;;;;;;5034302;28;19921;-75
2023/01/02 08:41:37;;;;;;;;;;;7.50;89.70;;;;;;5031659;28;19966;-73
2023/01/02 08:44:03;;;;;;;;;;;7.50;89.80;;;;;;5048101;28;20019;-76
2023/01/02 08:46:29;;;;;;;;;;;7.50;89.70;;;;;;5017866;28;20459;-76
2023/01/02 08:48:55;;;;;;;;;;;7.50;89.70;;;;;;5027093;28;20398;-76
2023/01/02 08:51:21;;;;;;;;;;;7.50;89.60;;;;;;5014829;28;19960;-75
2023/01/02 08:53:46;;;;;;;;;;;7.50;89.60;;;;;;5046705;28;19928;-75
2023/01/02 08:56:15;;;;;;;;;;;7.50;89.60;;;;;;5034866;28;19920;-75
2023/01/02 08:58:41;;;;;;;;;;;7.50;89.60;;;;;;5029845;28;20004;-75
2023/01/02 09:01:06;;;;;;;;;;;7.60;89.70;;;;;;5030049;28;19925;-75
2023/01/02 09:03:32;;;;;;;;;;;7.60;89.70;;;;;;5034456;28;19963;-75
2023/01/02 09:05:57;;;;;;;;;;;7.60;89.80;;;;;;5031946;28;20023;-75
2023/01/02 09:08:23;;;;;;;;;;;7.60;89.80;;;;;;5033144;28;19936;-75
2023/01/02 09:10:48;;;;;;;;;;;7.60;89.80;;;;;;5027251;28;20280;-75
2023/01/02 09:13:13;;;;;;;;;;;7.70;89.80;;;;;;5032656;28;19932;-75
2023/01/02 09:15:43;;;;;;;;;;;7.70;89.80;;;;;;5045558;28;19959;-75
2023/01/02 09:18:08;;;;;;;;;;;7.80;89.80;;;;;;5031650;28;19951;-75
2023/01/02 09:20:38;;;;;;;;;;;7.80;89.70;;;;;;5030398;28;20387;-74
2023/01/02 09:23:03;;;;;;;;;;;7.90;89.80;;;;;;5033625;28;20278;-75
2023/01/02 09:25:28;;;;;;;;;;;8.00;89.80;;;;;;5029713;28;19925;-73
2023/01/02 09:27:54;;;;;;;;;;;8.10;89.80;;;;;;5030545;28;20703;-74
2023/01/02 09:30:19;;;;;;;;;;;8.10;89.70;;;;;;5027811;28;19947;-75
2023/01/02 09:32:47;;;;;;;;;;;8.20;89.60;;;;;;5030967;28;19921;-75
2023/01/02 09:35:13;;;;;;;;;;;8.20;89.60;;;;;;5034375;28;20391;-76
2023/01/02 09:37:39;;;;;;;;;;;8.30;89.60;;;;;;5045335;28;19921;-75
2023/01/02 09:40:04;;;;;;;;;;;8.30;89.50;;;;;;5033606;28;19921;-76
2023/01/02 09:42:30;;;;;;;;;;;8.40;89.50;;;;;;5031519;28;19951;-75
2023/01/02 09:44:56;;;;;;;;;;;8.40;89.50;;;;;;5031747;28;19932;-75
2023/01/02 09:47:23;;;;;;;;;;;8.50;89.50;;;;;;5048088;28;20051;-76
2023/01/02 09:49:52;;;;;;;;;;;8.50;89.50;;;;;;5029846;28;19920;-75
2023/01/02 09:52:18;;;;;;;;;;;8.60;89.40;;;;;;5031287;28;19920;-76
2023/01/02 09:54:44;;;;;;;;;;;8.60;89.40;;;;;;5028644;28;19965;-75
2023/01/02 09:57:19;;;;;;;;;;;8.70;89.50;;;;;;5034667;28;20625;-75
2023/01/02 10:00:03;;;;;;;;;;;8.70;89.30;;;;;;5028613;28;20799;-74
2023/01/02 10:02:47;;;;;;;;;;;8.80;89.30;;;;;;5030331;28;19978;-75
2023/01/02 10:05:31;;;;;;;;;;;8.90;89.30;;;;;;5036398;28;19991;-75
2023/01/02 10:08:02;;;;;;;;;;;8.90;89.20;;;;;;5031236;28;19920;-76
2023/01/02 10:10:38;;;;;;;;;;;9.00;89.20;;;;;;5046638;28;19928;-75
2023/01/02 10:13:16;;;;;;;;;;;9.00;89.10;;;;;;5033985;28;19956;-76
2023/01/02 10:15:43;;;;;;;;;;;9.10;89.10;;;;;;5031813;28;19925;-74
2023/01/02 10:18:22;;;;;;;;;;;9.20;89.10;;;;;;5035886;28;20306;-75
2023/01/02 10:20:51;;;;;;;;;;;9.20;89.00;;;;;;5033598;28;19928;-75
2023/01/02 10:23:21;;;;;;;;;;;9.30;89.00;;;;;;5037273;28;20450;-76
2023/01/02 10:25:52;;;;;;;;;;;9.40;89.00;;;;;;5033237;28;20354;-75
2023/01/02 10:28:27;;;;;;;;;;;9.50;88.90;;;;;;5035674;28;19920;-75
2023/01/02 10:30:59;;;;;;;;;;;9.50;88.90;;;;;;5034919;28;20342;-76
2023/01/02 10:33:26;;;;;;;;;;;9.60;88.90;;;;;;5034511;28;19925;-76
2023/01/02 10:35:56;;;;;;;;;;;9.70;88.90;;;;;;5047058;28;19921;-75
2023/01/02 10:38:22;;;;;;;;;;;9.80;88.80;;;;;;5036092;28;19925;-75
2023/01/02 10:40:47;;;;;;;;;;;9.90;88.70;;;;;;5034106;28;19928;-76
2023/01/02 10:43:13;;;;;;;;;;;10.00;88.60;;;;;;5035576;28;19929;-76
2023/01/02 10:45:39;;;;;;;;;;;10.00;88.50;;;;;;5027013;28;19977;-76
2023/01/02 10:48:04;;;;;;;;;;;10.10;88.60;;;;;;5032786;28;19921;-76
2023/01/02 10:50:35;;;;;;;;;;;10.20;88.60;;;;;;5037840;28;20314;-75
2023/01/02 10:53:04;;;;;;;;;;;10.30;88.50;;;;;;5032195;28;19927;-75
2023/01/02 10:55:30;;;;;;;;;;;10.40;88.50;;;;;;5034867;28;19920;-76
2023/01/02 10:58:00;;;;;;;;;;;10.40;88.30;;;;;;5031065;28;19928;-75
2023/01/02 11:00:26;;;;;;;;;;;10.50;88.30;;;;;;5047427;28;19928;-74
2023/01/02 11:02:53;;;;;;;;;;;10.60;88.30;;;;;;5030685;28;19955;-76
2023/01/02 11:05:19;;;;;;;;;;;10.60;88.20;;;;;;5035991;28;19921;-75
2023/01/02 11:07:48;;;;;;;;;;;10.60;88.20;;;;;;5029951;28;19995;-75
2023/01/02 11:10:20;;;;;;;;;;;10.60;88.10;;;;;;5034918;28;19948;-76
2023/01/02 11:12:46;;;;;;;;;;;10.70;88.10;;;;;;5029865;28;19921;-76
2023/01/02 11:15:12;;;;;;;;;;;10.80;88.20;;;;;;5037672;28;19974;-75
2023/01/02 11:17:41;;;;;;;;;;;10.90;88.20;;;;;;5032492;28;19928;-75
2023/01/02 11:20:16;;;;;;;;;;;10.90;88.10;;;;;;5028352;28;19989;-75
2023/01/02 11:22:42;;;;;;;;;;;11.00;88.00;;;;;;5033343;28;19925;-75
2023/01/02 11:25:15;;;;;;;;;;;11.20;88.10;;;;;;5035066;28;19920;-76
2023/01/02 11:27:41;;;;;;;;;;;11.30;88.00;;;;;;5013875;28;19922;-76
2023/01/02 11:30:07;;;;;;;;;;;11.40;87.90;;;;;;5031352;28;19931;-76
2023/01/02 11:32:37;;;;;;;;;;;11.50;87.80;;;;;;5034759;28;19930;-76
2023/01/02 11:35:03;;;;;;;;;;;11.60;87.70;;;;;;5006447;28;19924;-76
2023/01/02 11:37:28;;;;;;;;;;;11.80;87.60;;;;;;5032986;28;20522;-76
2023/01/02 11:40:04;;;;;;;;;;;11.90;87.60;;;;;;5032254;28;20380;-76
2023/01/02 11:45:21;;;;;;;;;;;12.10;87.30;;;;;;5030629;28;19927;-75
2023/01/02 11:47:50;;;;;;;;;;;12.30;87.20;;;;;;5031215;28;19921;-75
2023/01/02 11:50:20;;;;;;;;;;;12.40;87.00;;;;;;5032661;28;20856;-76
2023/01/02 11:52:47;;;;;;;;;;;12.50;86.80;;;;;;5031184;28;19925;-76
2023/01/02 11:55:39;;;;;;;;;;;12.60;86.80;;;;;;5033225;28;19921;-75
2023/01/02 11:58:06;;;;;;;;;;;12.70;86.70;;;;;;5028513;28;19920;-76
2023/01/02 12:00:31;;;;;;;;;;;12.90;86.70;;;;;;5033545;28;19920;-76
2023/01/02 12:02:59;;;;;;;;;;;13.00;86.60;;;;;;5025207;28;20610;-76
2023/01/02 12:05:31;;;;;;;;;;;13.20;86.40;;;;;;5035342;28;20619;-75
2023/01/02 12:08:00;;;;;;;;;;;13.30;86.20;;;;;;5032537;28;20549;-76
2023/01/02 12:10:25;;;;;;;;;;;13.40;86.00;;;;;;5047435;28;19971;-76
2023/01/02 12:12:54;;;;;;;;;;;13.50;85.80;;;;;;5035235;28;19925;-75
2023/01/02 12:15:28;;;;;;;;;;;13.60;85.80;;;;;;5030364;28;20571;-76
2023/01/02 12:17:54;;;;;;;;;;;13.70;85.50;;;;;;5046611;28;20020;-75
2023/01/02 12:20:40;;;;;;;;;;;13.80;85.50;;;;;;5033544;28;20032;-75
2023/01/02 12:23:12;;;;;;;;;;;13.80;85.40;;;;;;5032113;28;20036;-76
2023/01/02 12:25:44;;;;;;;;;;;13.90;85.20;;;;;;5029365;28;20496;-74
2023/01/02 12:28:23;;;;;;;;;;;13.90;85.10;;;;;;5032676;28;19985;-76
2023/01/02 12:31:07;;;;;;;;;;;14.00;85.10;;;;;;5026129;28;19928;-76
2023/01/02 12:33:35;;;;;;;;;;;14.00;85.00;;;;;;5034046;28;20415;-76
2023/01/02 12:36:27;;;;;;;;;;;14.10;84.90;;;;;;5028480;28;19947;-76
2023/01/02 12:38:55;;;;;;;;;;;14.10;84.80;;;;;;5012252;28;20341;-75
2023/01/02 12:41:23;;;;;;;;;;;14.10;84.70;;;;;;5046092;28;19947;-75
2023/01/02 12:44:09;;;;;;;;;;;14.10;84.60;;;;;;5030915;28;19999;-75
2023/01/02 12:46:44;;;;;;;;;;;14.20;84.20;;;;;;5031552;28;19921;-76
2023/01/02 12:49:19;;;;;;;;;;;14.20;84.30;;;;;;5031273;28;19983;-76
2023/01/02 12:51:51;;;;;;;;;;;14.30;84.30;;;;;;5028171;28;19921;-76
2023/01/02 12:54:25;;;;;;;;;;;14.30;84.30;;;;;;5012706;28;21454;-75
2023/01/02 12:56:58;;;;;;;;;;;14.30;84.30;;;;;;5044178;28;19927;-76
2023/01/02 12:59:32;;;;;;;;;;;14.30;84.00;;;;;;5030299;28;19931;-76
2023/01/02 13:02:16;;;;;;;;;;;14.30;84.20;;;;;;5030895;28;19921;-75
2023/01/02 13:04:44;;;;;;;;;;;14.30;84.20;;;;;;5043033;28;19958;-76
2023/01/02 13:07:12;;;;;;;;;;;14.30;84.00;;;;;;5029427;28;19921;-75
2023/01/02 13:09:41;;;;;;;;;;;14.30;84.00;;;;;;5031611;28;19960;-76
2023/01/02 13:12:13;;;;;;;;;;;14.30;84.00;;;;;;5029814;28;19921;-76
2023/01/02 13:14:40;;;;;;;;;;;14.30;84.00;;;;;;5031085;28;19921;-76
2023/01/02 13:17:22;;;;;;;;;;;14.20;84.00;;;;;;5032296;28;20640;-76
2023/01/02 13:19:53;;;;;;;;;;;14.20;84.10;;;;;;5028789;28;19960;-75
2023/01/02 13:22:31;;;;;;;;;;;14.20;84.00;;;;;;5030061;28;19928;-76
2023/01/02 13:24:57;;;;;;;;;;;14.20;84.00;;;;;;5030963;28;19932;-76
2023/01/02 13:27:22;;;;;;;;;;;14.20;84.10;;;;;;5029509;28;19920;-76
2023/01/02 13:29:48;;;;;;;;;;;14.20;84.10;;;;;;5026792;28;19982;-75
2023/01/02 13:32:13;;;;;;;;;;;14.20;84.00;;;;;;5030488;28;19920;-76
2023/01/02 13:34:46;;;;;;;;;;;14.20;84.00;;;;;;5032221;28;20684;-76
2023/01/02 13:37:16;;;;;;;;;;;14.20;84.00;;;;;;5030558;28;20015;-76
2023/01/02 13:39:41;;;;;;;;;;;14.20;84.10;;;;;;5030340;28;19932;-76
2023/01/02 13:44:52;;;;;;;;;;;14.20;84.00;;;;;;5021174;28;20003;-76
2023/01/02 13:47:21;;;;;;;;;;;14.20;83.90;;;;;;5027495;28;20099;-76
2023/01/02 13:49:48;;;;;;;;;;;14.20;84.00;;;;;;5030169;28;19932;-73
2023/01/02 13:52:14;;;;;;;;;;;14.20;83.80;;;;;;5031889;28;20538;-76
2023/01/02 13:54:41;;;;;;;;;;;14.20;83.90;;;;;;5020374;28;19921;-76
2023/01/02 13:57:14;;;;;;;;;;;14.20;83.90;;;;;;5036084;28;19967;-75
2023/01/02 13:59:50;;;;;;;;;;;14.20;84.00;;;;;;5034196;28;19925;-76
2023/01/02 14:02:16;;;;;;;;;;;14.10;83.90;;;;;;5035820;28;20023;-76
2023/01/02 14:04:42;;;;;;;;;;;14.10;83.90;;;;;;5019506;28;19931;-75
2023/01/02 14:07:37;;;;;;;;;;;14.10;84.00;;;;;;5050214;28;19932;-76
2023/01/02 14:10:09;;;;;;;;;;;14.10;84.00;;;;;;5009301;28;19920;-76
2023/01/02 14:12:42;;;;;;;;;;;14.10;84.00;;;;;;5045652;28;20501;-73
2023/01/02 14:15:13;;;;;;;;;;;14.00;84.00;;;;;;5020625;28;19925;-75
2023/01/02 14:17:39;;;;;;;;;;;14.00;83.80;;;;;;5048357;28;19927;-76
2023/01/02 14:20:18;;;;;;;;;;;13.90;83.90;;;;;;5035581;28;19921;-76
2023/01/02 14:22:44;;;;;;;;;;;13.90;83.90;;;;;;5032778;28;19932;-73
2023/01/02 14:25:10;;;;;;;;;;;13.90;83.90;;;;;;5034046;28;19979;-76
2023/01/02 14:27:35;;;;;;;;;;;13.90;84.00;;;;;;5033623;28;19921;-74
2023/01/02 14:30:05;;;;;;;;;;;13.80;84.00;;;;;;5034747;28;19924;-76
2023/01/02 14:32:30;;;;;;;;;;;13.80;84.00;;;;;;5036853;28;20395;-76
2023/01/02 14:34:56;;;;;;;;;;;13.80;84.00;;;;;;5032781;28;19928;-75
2023/01/02 14:37:30;;;;;;;;;;;13.70;84.90;;;;;;5026514;28;19920;-76
2023/01/02 14:40:07;;;;;;;;;;;13.70;84.10;;;;;;5030025;28;20349;-76